Time;durP1;ratioP1;P1;durP2;ratioP2;P2;SDS_P1;SDS_P2;PMS_P1;PMS_P2;Temp;Humidity;BMP_temperature;BMP_pressure;BME280_temperature;BME280_humidity;BME280_pressure;Samples;Min_cycle;Max_cycle;Signal;HPM_P1;HPM_P2
2022/11/08 00:03:46;;;;;;;;;;;8.90;99.90;;;;;;5102689;28;19922;-73
2022/11/08 00:14:24;;;;;;;;;;;8.70;99.90;;;;;;5102533;28;19915;-73
2022/11/08 00:16:50;;;;;;;;;;;8.70;99.90;;;;;;5083936;28;19908;-73
2022/11/08 00:19:16;;;;;;;;;;;8.60;99.90;;;;;;5102144;28;19930;-73
2022/11/08 00:21:41;;;;;;;;;;;8.60;99.90;;;;;;5083867;28;19916;-73
2022/11/08 00:24:07;;;;;;;;;;;8.60;99.90;;;;;;5102450;28;19915;-73
2022/11/08 00:26:33;;;;;;;;;;;8.60;99.90;;;;;;5084185;28;19908;-73
2022/11/08 00:28:58;;;;;;;;;;;8.50;99.90;;;;;;5067626;28;19916;-73
2022/11/08 00:31:24;;;;;;;;;;;8.60;99.90;;;;;;5102333;28;19908;-73
2022/11/08 00:33:50;;;;;;;;;;;8.60;99.90;;;;;;5101540;28;19919;-73
2022/11/08 00:36:15;;;;;;;;;;;8.60;99.90;;;;;;5102039;28;19908;-73
2022/11/08 00:38:42;;;;;;;;;;;8.50;99.90;;;;;;5083825;28;19920;-73
2022/11/08 00:41:08;;;;;;;;;;;8.50;99.90;;;;;;5067721;28;19914;-73
2022/11/08 00:43:34;;;;;;;;;;;8.50;99.90;;;;;;5102148;28;20148;-73
2022/11/08 00:46:00;;;;;;;;;;;8.40;99.90;;;;;;5104570;28;19939;-73
2022/11/08 00:48:25;;;;;;;;;;;8.50;99.90;;;;;;5087585;28;19908;-73
2022/11/08 00:50:51;;;;;;;;;;;8.40;99.90;;;;;;5105926;28;19954;-74
2022/11/08 00:53:17;;;;;;;;;;;8.40;99.90;;;;;;5087568;28;19908;-73
2022/11/08 00:55:42;;;;;;;;;;;8.40;99.90;;;;;;5087784;28;19942;-73
2022/11/08 00:58:08;;;;;;;;;;;8.30;99.90;;;;;;5105470;28;19912;-73
2022/11/08 01:00:34;;;;;;;;;;;8.30;99.90;;;;;;5105751;28;19971;-73
2022/11/08 01:03:18;;;;;;;;;;;8.30;99.90;;;;;;5087569;28;19911;-73
2022/11/08 01:05:43;;;;;;;;;;;8.30;99.90;;;;;;5090312;28;19915;-74
2022/11/08 01:08:09;;;;;;;;;;;8.30;99.90;;;;;;5104005;28;20175;-73
2022/11/08 01:10:35;;;;;;;;;;;8.30;99.90;;;;;;5087658;28;19974;-72
2022/11/08 01:13:01;;;;;;;;;;;8.30;99.90;;;;;;5087551;28;19951;-73
2022/11/08 01:15:26;;;;;;;;;;;8.30;99.90;;;;;;5105351;28;19916;-73
2022/11/08 01:17:52;;;;;;;;;;;8.30;99.90;;;;;;5104881;28;19912;-73
2022/11/08 01:20:18;;;;;;;;;;;8.30;99.90;;;;;;5104266;28;20199;-73
2022/11/08 01:22:43;;;;;;;;;;;8.30;99.90;;;;;;5104043;28;19908;-73
2022/11/08 01:25:09;;;;;;;;;;;8.30;99.90;;;;;;5087253;28;19908;-73
2022/11/08 01:27:35;;;;;;;;;;;8.20;99.90;;;;;;5104848;28;19915;-73
2022/11/08 01:30:00;;;;;;;;;;;8.20;99.90;;;;;;5087188;28;19914;-73
2022/11/08 01:32:26;;;;;;;;;;;8.20;99.90;;;;;;5105091;28;20211;-72
2022/11/08 01:34:51;;;;;;;;;;;8.10;99.90;;;;;;5105615;28;20230;-73
2022/11/08 01:37:17;;;;;;;;;;;8.10;99.90;;;;;;5104097;28;20107;-73
2022/11/08 01:39:43;;;;;;;;;;;8.00;99.90;;;;;;5104856;28;19987;-72
2022/11/08 01:42:08;;;;;;;;;;;8.00;99.90;;;;;;5104921;28;19915;-72
2022/11/08 01:44:55;;;;;;;;;;;8.00;99.90;;;;;;5103854;28;19916;-72
2022/11/08 01:47:21;;;;;;;;;;;7.90;99.90;;;;;;5104668;28;19908;-73
2022/11/08 01:49:46;;;;;;;;;;;7.90;99.90;;;;;;5086881;28;19916;-73
2022/11/08 01:52:23;;;;;;;;;;;7.90;99.90;;;;;;5086552;28;19908;-73
2022/11/08 01:55:00;;;;;;;;;;;7.90;99.90;;;;;;5104770;28;19949;-73
2022/11/08 01:57:35;;;;;;;;;;;7.90;99.90;;;;;;5103567;28;19987;-73
2022/11/08 02:00:04;;;;;;;;;;;7.90;99.90;;;;;;5069957;28;19966;-74
2022/11/08 02:02:30;;;;;;;;;;;7.80;99.90;;;;;;5086905;28;19908;-73
2022/11/08 02:04:56;;;;;;;;;;;7.80;99.90;;;;;;5086550;28;19930;-72
2022/11/08 02:07:22;;;;;;;;;;;7.80;99.90;;;;;;5104072;28;19908;-73
2022/11/08 02:09:47;;;;;;;;;;;7.80;99.90;;;;;;5069759;28;19915;-74
2022/11/08 02:12:14;;;;;;;;;;;7.70;99.90;;;;;;5103351;28;19908;-73
2022/11/08 02:14:40;;;;;;;;;;;7.70;99.90;;;;;;5086397;28;20195;-73
2022/11/08 02:17:06;;;;;;;;;;;7.70;99.90;;;;;;5069254;28;19957;-73
2022/11/08 02:19:43;;;;;;;;;;;7.70;99.90;;;;;;5086108;28;19957;-73
2022/11/08 02:22:28;;;;;;;;;;;7.80;99.90;;;;;;5086135;28;20488;-73
2022/11/08 02:24:54;;;;;;;;;;;7.70;99.90;;;;;;5088134;28;19971;-73
2022/11/08 02:27:20;;;;;;;;;;;7.80;99.90;;;;;;5085918;28;19945;-73
2022/11/08 02:29:45;;;;;;;;;;;7.80;99.90;;;;;;5069203;28;20207;-73
2022/11/08 02:32:11;;;;;;;;;;;7.80;99.90;;;;;;5102569;28;20108;-73
2022/11/08 02:34:45;;;;;;;;;;;7.80;99.90;;;;;;5085887;28;19987;-73
2022/11/08 02:37:13;;;;;;;;;;;7.70;99.90;;;;;;5084675;28;19922;-73
2022/11/08 02:39:38;;;;;;;;;;;7.70;99.90;;;;;;5103724;28;19912;-74
2022/11/08 02:42:04;;;;;;;;;;;7.70;99.90;;;;;;5102831;28;19915;-74
2022/11/08 02:44:29;;;;;;;;;;;7.70;99.90;;;;;;5069201;28;20110;-74
2022/11/08 02:46:55;;;;;;;;;;;7.70;99.90;;;;;;5103457;28;19975;-74
2022/11/08 02:49:21;;;;;;;;;;;7.70;99.90;;;;;;5068820;28;19978;-74
2022/11/08 02:51:46;;;;;;;;;;;7.70;99.90;;;;;;5103706;28;20219;-74
2022/11/08 02:54:12;;;;;;;;;;;7.70;99.90;;;;;;5103409;28;19914;-73
2022/11/08 02:56:38;;;;;;;;;;;7.70;99.90;;;;;;5085218;28;19912;-74
2022/11/08 02:59:05;;;;;;;;;;;7.70;99.90;;;;;;5103342;28;19926;-73
2022/11/08 03:01:30;;;;;;;;;;;7.70;99.90;;;;;;5103475;28;19916;-74
2022/11/08 03:03:56;;;;;;;;;;;7.70;99.90;;;;;;5085365;28;19914;-73
2022/11/08 03:06:21;;;;;;;;;;;7.70;99.90;;;;;;5103121;28;19908;-73
2022/11/08 03:08:47;;;;;;;;;;;7.70;99.90;;;;;;5102949;28;19953;-73
2022/11/08 03:11:13;;;;;;;;;;;7.70;99.90;;;;;;5085236;28;19908;-73
2022/11/08 03:13:38;;;;;;;;;;;7.60;99.90;;;;;;5085234;28;19915;-74
2022/11/08 03:16:04;;;;;;;;;;;7.50;99.90;;;;;;5103118;28;19920;-73
2022/11/08 03:18:30;;;;;;;;;;;7.50;99.90;;;;;;5084931;28;19935;-73
2022/11/08 03:20:57;;;;;;;;;;;7.50;99.90;;;;;;5102987;28;19954;-73
2022/11/08 03:23:23;;;;;;;;;;;7.50;99.90;;;;;;5068433;28;19999;-73
2022/11/08 03:25:48;;;;;;;;;;;7.40;99.90;;;;;;5085029;28;20203;-73
2022/11/08 03:28:14;;;;;;;;;;;7.30;99.90;;;;;;5084796;28;19943;-73
2022/11/08 03:30:40;;;;;;;;;;;7.20;99.90;;;;;;5085002;28;20189;-73
2022/11/08 03:33:05;;;;;;;;;;;7.10;99.90;;;;;;5084949;28;19908;-73
2022/11/08 03:35:31;;;;;;;;;;;7.10;99.90;;;;;;5084954;28;19915;-73
2022/11/08 03:37:57;;;;;;;;;;;7.10;99.90;;;;;;5102292;28;20225;-73
2022/11/08 03:40:23;;;;;;;;;;;7.10;99.90;;;;;;5101761;28;20111;-73
2022/11/08 03:42:48;;;;;;;;;;;7.10;99.90;;;;;;5102803;28;20118;-73
2022/11/08 03:45:14;;;;;;;;;;;7.10;99.90;;;;;;5102875;28;19979;-73
2022/11/08 03:47:44;;;;;;;;;;;7.10;99.90;;;;;;5084525;28;19923;-73
2022/11/08 03:50:10;;;;;;;;;;;7.00;99.90;;;;;;5084992;28;19916;-73
2022/11/08 03:52:46;;;;;;;;;;;7.10;99.90;;;;;;5084644;28;20254;-74
2022/11/08 03:55:12;;;;;;;;;;;7.10;99.90;;;;;;5084897;28;19908;-73
2022/11/08 03:57:41;;;;;;;;;;;7.10;99.90;;;;;;5084325;28;19908;-73
2022/11/08 04:00:07;;;;;;;;;;;7.00;99.90;;;;;;5101482;28;19912;-73
2022/11/08 04:02:33;;;;;;;;;;;7.00;99.90;;;;;;5084662;28;19912;-73
2022/11/08 04:04:59;;;;;;;;;;;7.00;99.90;;;;;;5084726;28;19953;-73
2022/11/08 04:07:24;;;;;;;;;;;7.00;99.90;;;;;;5101006;28;19916;-73
2022/11/08 04:09:50;;;;;;;;;;;7.00;99.90;;;;;;5080958;28;19925;-73
2022/11/08 04:15:15;;;;;;;;;;;6.90;99.90;;;;;;5082326;28;19923;-73
2022/11/08 04:23:10;;;;;;;;;;;6.80;99.90;;;;;;5070805;28;19922;-73
2022/11/08 04:25:35;;;;;;;;;;;6.70;99.90;;;;;;5086233;28;19912;-73
2022/11/08 04:28:01;;;;;;;;;;;6.70;99.90;;;;;;5086004;28;19946;-73
2022/11/08 04:30:27;;;;;;;;;;;6.70;99.90;;;;;;5068382;28;19908;-73
2022/11/08 04:32:53;;;;;;;;;;;6.70;99.90;;;;;;5086038;28;19920;-73
2022/11/08 04:35:18;;;;;;;;;;;6.70;99.90;;;;;;5085836;28;19909;-73
2022/11/08 04:37:44;;;;;;;;;;;6.70;99.90;;;;;;5079774;28;19930;-73
2022/11/08 04:40:10;;;;;;;;;;;6.70;99.90;;;;;;5087664;28;19961;-73
2022/11/08 04:42:36;;;;;;;;;;;6.70;99.90;;;;;;5106228;28;19979;-73
2022/11/08 04:45:02;;;;;;;;;;;6.70;99.90;;;;;;5106071;28;19908;-73
2022/11/08 04:47:27;;;;;;;;;;;6.70;99.90;;;;;;5087853;28;19908;-73
2022/11/08 04:49:53;;;;;;;;;;;6.70;99.90;;;;;;5071124;28;19955;-73
2022/11/08 04:52:19;;;;;;;;;;;6.70;99.90;;;;;;5087582;28;19908;-73
2022/11/08 04:54:45;;;;;;;;;;;6.70;99.90;;;;;;5087758;28;19916;-73
2022/11/08 04:57:11;;;;;;;;;;;6.60;99.90;;;;;;5087578;28;19945;-73
2022/11/08 04:59:38;;;;;;;;;;;6.70;99.90;;;;;;5070551;28;19951;-73
2022/11/08 05:02:04;;;;;;;;;;;6.70;99.90;;;;;;5078967;28;19940;-73
2022/11/08 05:04:29;;;;;;;;;;;6.70;99.90;;;;;;5102177;28;19913;-73
2022/11/08 05:06:55;;;;;;;;;;;6.70;99.90;;;;;;5078843;28;19920;-73
2022/11/08 05:09:21;;;;;;;;;;;6.70;99.90;;;;;;5090425;28;19920;-73
2022/11/08 05:11:46;;;;;;;;;;;6.70;99.90;;;;;;5101005;28;20271;-73
2022/11/08 05:14:12;;;;;;;;;;;6.70;99.90;;;;;;5055993;28;19919;-73
2022/11/08 05:16:38;;;;;;;;;;;6.70;99.90;;;;;;5102726;28;19908;-73
2022/11/08 05:19:03;;;;;;;;;;;6.70;99.90;;;;;;5082605;28;19958;-74
2022/11/08 05:24:14;;;;;;;;;;;6.70;99.90;;;;;;5098151;28;19915;-73
2022/11/08 05:26:41;;;;;;;;;;;6.70;99.90;;;;;;5064410;28;19916;-73
2022/11/08 05:29:07;;;;;;;;;;;6.60;99.90;;;;;;5076869;28;19923;-73
2022/11/08 05:31:36;;;;;;;;;;;6.60;99.90;;;;;;5082386;28;19911;-72
2022/11/08 05:34:01;;;;;;;;;;;6.60;99.90;;;;;;5075254;28;19920;-72
2022/11/08 05:36:27;;;;;;;;;;;6.60;99.90;;;;;;5074703;28;19913;-72
2022/11/08 05:38:53;;;;;;;;;;;6.60;99.90;;;;;;5083377;28;19923;-72
2022/11/08 05:41:20;;;;;;;;;;;6.60;99.90;;;;;;5080882;28;19986;-72
2022/11/08 05:43:47;;;;;;;;;;;6.60;99.90;;;;;;5099010;28;19943;-72
2022/11/08 05:46:13;;;;;;;;;;;6.60;99.90;;;;;;5096133;28;19912;-72
2022/11/08 05:48:40;;;;;;;;;;;6.70;99.90;;;;;;5069950;28;20015;-72
2022/11/08 05:51:06;;;;;;;;;;;6.60;99.90;;;;;;5086881;28;19987;-72
2022/11/08 05:53:31;;;;;;;;;;;6.60;99.90;;;;;;5102298;28;19908;-72
2022/11/08 05:55:58;;;;;;;;;;;6.70;99.90;;;;;;5104289;28;19927;-72
2022/11/08 05:58:25;;;;;;;;;;;6.60;99.90;;;;;;5097768;28;19912;-72
2022/11/08 06:00:50;;;;;;;;;;;6.60;99.90;;;;;;5101465;28;19927;-72
2022/11/08 06:03:16;;;;;;;;;;;6.60;99.90;;;;;;5111476;28;20165;-72
2022/11/08 06:05:42;;;;;;;;;;;6.60;99.90;;;;;;5101169;28;19912;-72
2022/11/08 06:08:08;;;;;;;;;;;6.60;99.90;;;;;;5103584;28;19945;-72
2022/11/08 06:10:34;;;;;;;;;;;6.50;99.90;;;;;;5104141;28;20115;-72
2022/11/08 06:13:00;;;;;;;;;;;6.50;99.90;;;;;;5104067;28;19916;-72
2022/11/08 06:15:25;;;;;;;;;;;6.50;99.90;;;;;;5104106;28;20199;-73
2022/11/08 06:17:51;;;;;;;;;;;6.50;99.90;;;;;;5085580;28;20021;-73
2022/11/08 06:20:17;;;;;;;;;;;6.40;99.90;;;;;;5085901;28;20203;-73
2022/11/08 06:22:42;;;;;;;;;;;6.40;99.90;;;;;;5103870;28;20269;-73
2022/11/08 06:25:09;;;;;;;;;;;6.40;99.90;;;;;;5104077;28;19915;-72
2022/11/08 06:27:35;;;;;;;;;;;6.40;99.90;;;;;;5070247;28;19979;-73
2022/11/08 06:30:01;;;;;;;;;;;6.40;99.90;;;;;;5110826;28;19931;-73
2022/11/08 06:32:27;;;;;;;;;;;6.40;99.90;;;;;;5094001;28;19951;-73
2022/11/08 06:34:53;;;;;;;;;;;6.50;99.90;;;;;;5107409;28;20265;-74
2022/11/08 06:37:18;;;;;;;;;;;6.50;99.90;;;;;;5055133;28;19947;-73
2022/11/08 06:39:44;;;;;;;;;;;6.50;99.90;;;;;;5084834;28;19916;-74
2022/11/08 06:42:10;;;;;;;;;;;6.50;99.90;;;;;;5085072;28;19920;-74
2022/11/08 06:44:36;;;;;;;;;;;6.60;99.90;;;;;;5103582;28;19908;-74
2022/11/08 06:47:01;;;;;;;;;;;6.60;99.90;;;;;;5103077;28;20018;-73
2022/11/08 06:49:27;;;;;;;;;;;6.60;99.90;;;;;;5095155;28;19934;-72
2022/11/08 06:51:53;;;;;;;;;;;6.60;99.90;;;;;;5093248;28;19975;-72
2022/11/08 06:54:18;;;;;;;;;;;6.60;99.90;;;;;;5099286;28;19927;-72
2022/11/08 06:56:44;;;;;;;;;;;6.60;99.90;;;;;;5083351;28;20092;-72
2022/11/08 06:59:10;;;;;;;;;;;6.60;99.90;;;;;;5103126;28;19920;-72
2022/11/08 07:01:36;;;;;;;;;;;6.70;99.90;;;;;;5103154;28;19916;-71
2022/11/08 07:04:02;;;;;;;;;;;6.70;99.90;;;;;;5101952;28;19979;-71
2022/11/08 07:06:28;;;;;;;;;;;6.60;99.90;;;;;;5101493;28;19958;-72
2022/11/08 07:08:54;;;;;;;;;;;6.60;99.90;;;;;;5081287;28;20249;-72
2022/11/08 07:11:19;;;;;;;;;;;6.60;99.90;;;;;;5082646;28;19916;-72
2022/11/08 07:13:46;;;;;;;;;;;6.60;99.90;;;;;;5064671;28;19923;-73
2022/11/08 07:16:12;;;;;;;;;;;6.70;99.90;;;;;;5064602;28;20139;-73
2022/11/08 07:18:37;;;;;;;;;;;6.70;99.90;;;;;;5082152;28;19917;-73
2022/11/08 07:21:05;;;;;;;;;;;6.70;99.90;;;;;;5080770;28;20225;-73
2022/11/08 07:23:31;;;;;;;;;;;6.80;99.90;;;;;;5064513;28;20147;-72
2022/11/08 07:26:01;;;;;;;;;;;6.90;99.90;;;;;;5064334;28;19915;-73
2022/11/08 07:28:27;;;;;;;;;;;6.90;99.90;;;;;;5082109;28;19908;-72
2022/11/08 07:30:56;;;;;;;;;;;6.90;99.90;;;;;;5082328;28;19941;-72
2022/11/08 07:33:22;;;;;;;;;;;7.00;99.90;;;;;;5082229;28;19934;-73
2022/11/08 07:35:47;;;;;;;;;;;7.10;99.90;;;;;;5064574;28;19979;-73
2022/11/08 07:38:13;;;;;;;;;;;7.10;99.90;;;;;;5096201;28;19919;-73
2022/11/08 07:40:38;;;;;;;;;;;7.10;99.90;;;;;;5084382;28;19912;-73
2022/11/08 07:43:04;;;;;;;;;;;7.20;99.90;;;;;;5102098;28;19965;-73
2022/11/08 07:45:30;;;;;;;;;;;7.40;99.90;;;;;;5102244;28;19919;-73
2022/11/08 07:47:59;;;;;;;;;;;7.40;99.90;;;;;;5084097;28;19908;-73
2022/11/08 07:50:25;;;;;;;;;;;7.50;99.90;;;;;;5084316;28;19924;-73
2022/11/08 07:52:51;;;;;;;;;;;7.60;99.90;;;;;;5084224;28;19930;-73
2022/11/08 07:55:17;;;;;;;;;;;7.70;99.90;;;;;;5083701;28;19915;-73
2022/11/08 07:57:42;;;;;;;;;;;7.80;99.90;;;;;;5102042;28;19908;-73
2022/11/08 08:00:09;;;;;;;;;;;7.80;99.90;;;;;;5101172;28;20115;-72
2022/11/08 08:02:34;;;;;;;;;;;7.80;99.90;;;;;;5084478;28;19916;-72
2022/11/08 08:05:00;;;;;;;;;;;7.90;99.90;;;;;;5102436;28;20153;-72
2022/11/08 08:07:26;;;;;;;;;;;8.00;99.90;;;;;;5101892;28;19908;-72
2022/11/08 08:09:51;;;;;;;;;;;8.10;99.90;;;;;;5102025;28;19915;-72
2022/11/08 08:12:17;;;;;;;;;;;8.20;99.90;;;;;;5102148;28;19954;-72
2022/11/08 08:14:43;;;;;;;;;;;8.20;99.90;;;;;;5102226;28;19908;-72
2022/11/08 08:17:09;;;;;;;;;;;8.30;99.90;;;;;;5101998;28;19919;-73
2022/11/08 08:19:34;;;;;;;;;;;8.40;99.90;;;;;;5083834;28;20211;-72
2022/11/08 08:22:00;;;;;;;;;;;8.50;99.90;;;;;;5084309;28;19916;-73
2022/11/08 08:24:26;;;;;;;;;;;8.60;99.90;;;;;;5101769;28;19908;-73
2022/11/08 08:26:51;;;;;;;;;;;8.70;99.90;;;;;;5101813;28;19946;-72
2022/11/08 08:29:17;;;;;;;;;;;8.80;99.90;;;;;;5101958;28;19931;-72
2022/11/08 08:31:43;;;;;;;;;;;8.90;99.90;;;;;;5083922;28;19930;-72
2022/11/08 08:34:08;;;;;;;;;;;9.00;99.90;;;;;;5084176;28;20139;-72
2022/11/08 08:36:34;;;;;;;;;;;9.10;99.90;;;;;;5101654;28;20294;-73
2022/11/08 08:39:00;;;;;;;;;;;9.20;99.90;;;;;;5100487;28;19920;-72
2022/11/08 08:41:25;;;;;;;;;;;9.20;99.90;;;;;;5101923;28;19914;-72
2022/11/08 08:43:51;;;;;;;;;;;9.30;99.90;;;;;;5102050;28;19908;-72
2022/11/08 08:46:17;;;;;;;;;;;9.40;99.90;;;;;;5101592;28;19908;-72
2022/11/08 08:48:42;;;;;;;;;;;9.50;99.90;;;;;;5101743;28;19916;-72
2022/11/08 08:51:08;;;;;;;;;;;9.50;99.90;;;;;;5101834;28;20156;-72
2022/11/08 08:53:34;;;;;;;;;;;9.60;99.90;;;;;;5097623;28;20277;-72
2022/11/08 08:56:01;;;;;;;;;;;9.70;99.90;;;;;;5071270;28;19920;-72
2022/11/08 08:58:26;;;;;;;;;;;9.70;99.90;;;;;;5074574;28;19920;-71
2022/11/08 09:00:52;;;;;;;;;;;9.70;99.90;;;;;;5090917;28;19958;-73
2022/11/08 09:03:18;;;;;;;;;;;9.80;99.90;;;;;;5072767;28;19930;-72
2022/11/08 09:05:45;;;;;;;;;;;9.90;99.90;;;;;;5093580;28;19916;-72
2022/11/08 09:08:13;;;;;;;;;;;9.90;99.90;;;;;;5095480;28;19916;-72
2022/11/08 09:10:38;;;;;;;;;;;10.10;99.90;;;;;;5075976;28;19908;-72
2022/11/08 09:13:04;;;;;;;;;;;10.20;99.90;;;;;;5060579;28;19991;-73
2022/11/08 09:15:30;;;;;;;;;;;10.30;99.90;;;;;;5099609;28;19924;-72
2022/11/08 09:17:56;;;;;;;;;;;10.40;99.90;;;;;;5086072;28;19912;-72
2022/11/08 09:20:21;;;;;;;;;;;10.50;99.90;;;;;;5086258;28;19980;-73
2022/11/08 09:22:47;;;;;;;;;;;10.60;99.90;;;;;;5086503;28;19971;-72
2022/11/08 09:25:13;;;;;;;;;;;10.80;99.90;;;;;;5093946;28;20189;-72
2022/11/08 09:27:38;;;;;;;;;;;10.90;99.90;;;;;;5076443;28;19908;-72
2022/11/08 09:30:05;;;;;;;;;;;11.00;99.90;;;;;;5075036;28;20114;-72
2022/11/08 09:32:30;;;;;;;;;;;11.10;99.90;;;;;;5060308;28;20211;-71
2022/11/08 09:34:56;;;;;;;;;;;11.10;99.90;;;;;;5076440;28;19916;-72
2022/11/08 09:37:22;;;;;;;;;;;11.20;99.90;;;;;;5094724;28;20108;-72
2022/11/08 09:39:48;;;;;;;;;;;11.40;99.90;;;;;;5092672;28;19922;-72
2022/11/08 09:42:21;;;;;;;;;;;11.60;99.90;;;;;;5094194;28;19935;-72
2022/11/08 09:44:56;;;;;;;;;;;11.60;99.90;;;;;;5095319;28;19908;-72
2022/11/08 09:47:33;;;;;;;;;;;11.60;99.90;;;;;;5094465;28;19908;-72
2022/11/08 09:50:18;;;;;;;;;;;11.70;99.90;;;;;;5058852;28;19970;-72
2022/11/08 09:52:47;;;;;;;;;;;11.90;99.90;;;;;;5094664;28;19916;-72
2022/11/08 09:55:37;;;;;;;;;;;12.10;99.90;;;;;;5074962;28;20207;-72
2022/11/08 09:58:30;;;;;;;;;;;12.30;99.90;;;;;;5099761;28;20112;-72
2022/11/08 10:00:55;;;;;;;;;;;12.50;99.90;;;;;;5078277;28;20261;-73
2022/11/08 10:03:23;;;;;;;;;;;12.70;99.90;;;;;;5085598;28;19935;-72
2022/11/08 10:06:00;;;;;;;;;;;12.90;99.90;;;;;;5069255;28;19926;-73
2022/11/08 10:08:32;;;;;;;;;;;13.00;99.90;;;;;;5103612;28;19942;-73
2022/11/08 10:11:33;;;;;;;;;;;13.00;99.90;;;;;;5079650;28;19931;-73
2022/11/08 10:14:04;;;;;;;;;;;13.10;99.90;;;;;;5034942;28;19911;-73
2022/11/08 10:17:04;;;;;;;;;;;13.20;99.90;;;;;;5081233;28;20009;-73
2022/11/08 10:19:38;;;;;;;;;;;13.30;99.90;;;;;;5092591;28;20269;-73
2022/11/08 10:22:08;;;;;;;;;;;13.40;99.90;;;;;;5057750;28;19908;-73
2022/11/08 10:24:57;;;;;;;;;;;13.40;99.90;;;;;;5074622;28;19916;-73
2022/11/08 10:27:36;;;;;;;;;;;13.40;99.90;;;;;;5065515;28;20263;-73
2022/11/08 10:30:05;;;;;;;;;;;13.70;99.90;;;;;;5074201;28;20254;-73
2022/11/08 10:32:31;;;;;;;;;;;13.90;99.90;;;;;;5093639;28;19909;-73
2022/11/08 10:35:11;;;;;;;;;;;14.20;99.90;;;;;;5085957;28;19909;-73
2022/11/08 10:37:37;;;;;;;;;;;14.30;99.90;;;;;;5074083;28;20159;-73
2022/11/08 10:40:18;;;;;;;;;;;14.40;99.90;;;;;;5079351;28;19920;-73
2022/11/08 10:42:45;;;;;;;;;;;14.40;99.90;;;;;;5093081;28;19980;-73
2022/11/08 10:45:11;;;;;;;;;;;14.50;99.90;;;;;;5056952;28;20196;-73
2022/11/08 10:47:36;;;;;;;;;;;14.60;99.90;;;;;;5074590;28;19946;-73
2022/11/08 10:50:17;;;;;;;;;;;14.70;99.90;;;;;;5074771;28;20243;-73
2022/11/08 10:52:45;;;;;;;;;;;14.90;99.90;;;;;;5080369;28;19908;-73
2022/11/08 10:55:32;;;;;;;;;;;15.00;99.90;;;;;;5048792;28;19909;-74
2022/11/08 10:57:57;;;;;;;;;;;15.00;99.90;;;;;;5082845;28;19940;-73
2022/11/08 11:00:23;;;;;;;;;;;15.00;99.90;;;;;;5065198;28;19913;-73
2022/11/08 11:02:59;;;;;;;;;;;14.90;99.90;;;;;;5083014;28;19962;-73
2022/11/08 11:05:35;;;;;;;;;;;14.70;99.90;;;;;;5065421;28;19916;-72
2022/11/08 11:08:07;;;;;;;;;;;14.60;99.90;;;;;;5073619;28;19983;-73
2022/11/08 11:10:37;;;;;;;;;;;14.40;99.90;;;;;;5103463;28;19908;-73
2022/11/08 11:13:18;;;;;;;;;;;14.30;99.90;;;;;;5069501;28;19945;-73
2022/11/08 11:15:57;;;;;;;;;;;14.20;99.90;;;;;;5103424;28;19947;-74
2022/11/08 11:18:48;;;;;;;;;;;14.30;99.90;;;;;;5085412;28;20047;-74
2022/11/08 11:21:15;;;;;;;;;;;14.30;99.90;;;;;;5103087;28;19908;-74
2022/11/08 11:23:45;;;;;;;;;;;14.40;99.90;;;;;;5084441;28;19908;-73
2022/11/08 11:26:27;;;;;;;;;;;14.40;99.90;;;;;;5082447;28;19920;-73
2022/11/08 11:29:05;;;;;;;;;;;14.30;99.90;;;;;;5091528;28;20195;-73
2022/11/08 11:31:35;;;;;;;;;;;14.20;99.90;;;;;;5102976;28;19915;-73
2022/11/08 11:34:15;;;;;;;;;;;14.20;99.90;;;;;;5101947;28;20053;-76
2022/11/08 11:36:43;;;;;;;;;;;14.30;99.90;;;;;;5100840;28;20073;-68
2022/11/08 11:39:21;;;;;;;;;;;14.50;99.90;;;;;;5076405;28;19921;-69
2022/11/08 11:41:49;;;;;;;;;;;14.70;99.90;;;;;;5065248;28;20107;-74
2022/11/08 11:44:27;;;;;;;;;;;14.80;99.90;;;;;;5076723;28;19927;-75
2022/11/08 11:47:09;;;;;;;;;;;14.90;99.90;;;;;;5093559;28;19924;-75
2022/11/08 11:49:34;;;;;;;;;;;15.00;99.90;;;;;;5101679;28;19974;-72
2022/11/08 11:52:00;;;;;;;;;;;15.20;99.90;;;;;;5095894;28;19920;-73
2022/11/08 11:54:27;;;;;;;;;;;15.50;99.90;;;;;;5092463;28;20182;-74
2022/11/08 11:57:11;;;;;;;;;;;15.70;99.90;;;;;;5092745;28;19908;-74
2022/11/08 11:59:37;;;;;;;;;;;15.80;99.90;;;;;;5102308;28;19920;-73
2022/11/08 12:02:18;;;;;;;;;;;15.90;99.90;;;;;;5102506;28;19934;-74
2022/11/08 12:04:58;;;;;;;;;;;15.90;99.90;;;;;;5101139;28;19908;-74
2022/11/08 12:07:26;;;;;;;;;;;16.00;99.90;;;;;;5100163;28;19915;-74
2022/11/08 12:10:22;;;;;;;;;;;16.30;99.90;;;;;;5084280;28;19908;-74
2022/11/08 12:12:51;;;;;;;;;;;16.90;99.90;;;;;;5084280;28;19912;-74
2022/11/08 12:15:46;;;;;;;;;;;17.90;99.90;;;;;;5102291;28;19908;-74
2022/11/08 12:18:36;;;;;;;;;;;18.60;99.90;;;;;;5083553;28;19949;-74
2022/11/08 12:21:14;;;;;;;;;;;19.00;99.90;;;;;;5084084;28;19939;-75
2022/11/08 12:23:58;;;;;;;;;;;18.80;99.90;;;;;;5080681;28;19920;-74
2022/11/08 12:26:54;;;;;;;;;;;19.10;99.90;;;;;;5092299;28;20024;-74
2022/11/08 12:29:20;;;;;;;;;;;19.70;99.90;;;;;;5074673;28;20138;-75
2022/11/08 12:32:10;;;;;;;;;;;20.70;93.90;;;;;;5092917;28;19908;-74
2022/11/08 12:34:45;;;;;;;;;;;21.60;87.50;;;;;;5074735;28;19950;-74
2022/11/08 12:37:33;;;;;;;;;;;22.10;81.60;;;;;;5074674;28;20188;-74
2022/11/08 12:40:00;;;;;;;;;;;22.50;84.10;;;;;;5093463;28;19920;-75
2022/11/08 12:42:51;;;;;;;;;;;23.80;72.50;;;;;;5076387;28;19924;-74
2022/11/08 12:45:31;;;;;;;;;;;24.40;66.10;;;;;;5095744;28;20107;-74
2022/11/08 12:48:01;;;;;;;;;;;24.40;61.60;;;;;;5100375;28;20058;-74
2022/11/08 12:50:32;;;;;;;;;;;24.10;60.80;;;;;;5094168;28;19912;-75
2022/11/08 12:53:04;;;;;;;;;;;24.00;62.80;;;;;;5076518;28;19915;-74
2022/11/08 12:55:35;;;;;;;;;;;24.40;59.80;;;;;;5094610;28;19909;-74
2022/11/08 12:58:01;;;;;;;;;;;24.90;56.60;;;;;;5076149;28;19916;-75
2022/11/08 13:00:27;;;;;;;;;;;24.80;54.80;;;;;;5078355;28;19912;-75
2022/11/08 13:03:37;;;;;;;;;;;24.90;54.50;;;;;;5058768;28;19908;-74
2022/11/08 13:06:21;;;;;;;;;;;25.40;53.20;;;;;;5100404;28;20106;-74
2022/11/08 13:09:04;;;;;;;;;;;26.10;49.40;;;;;;5095607;28;19911;-74
2022/11/08 13:11:48;;;;;;;;;;;26.30;46.80;;;;;;5076371;28;19923;-74
2022/11/08 13:14:15;;;;;;;;;;;25.50;47.50;;;;;;5061541;28;20107;-74
2022/11/08 13:16:43;;;;;;;;;;;24.60;50.60;;;;;;5067575;28;20290;-75
2022/11/08 13:19:28;;;;;;;;;;;24.10;53.30;;;;;;5099995;28;19920;-74
2022/11/08 13:21:54;;;;;;;;;;;23.40;56.00;;;;;;5083884;28;19908;-74
2022/11/08 13:24:19;;;;;;;;;;;22.50;60.30;;;;;;5077570;28;20093;-74
2022/11/08 13:26:45;;;;;;;;;;;21.60;64.90;;;;;;5093078;28;19948;-74
2022/11/08 13:29:17;;;;;;;;;;;20.70;71.50;;;;;;5060410;28;19950;-74
2022/11/08 13:32:04;;;;;;;;;;;19.90;77.70;;;;;;5095477;28;20103;-74
2022/11/08 13:34:50;;;;;;;;;;;19.10;84.00;;;;;;5075884;28;19954;-74
2022/11/08 13:37:43;;;;;;;;;;;18.40;90.50;;;;;;5061324;28;19923;-74
2022/11/08 13:40:09;;;;;;;;;;;17.90;93.00;;;;;;5093648;28;19920;-74
2022/11/08 13:42:34;;;;;;;;;;;17.30;95.90;;;;;;5075839;28;19939;-74
2022/11/08 13:45:24;;;;;;;;;;;16.90;98.30;;;;;;5093720;28;20243;-73
2022/11/08 13:47:52;;;;;;;;;;;16.60;99.90;;;;;;5066536;28;19917;-74
2022/11/08 13:50:32;;;;;;;;;;;16.30;99.90;;;;;;5066747;28;19909;-74
2022/11/08 13:53:20;;;;;;;;;;;16.10;99.90;;;;;;5082982;28;20115;-74
2022/11/08 13:55:54;;;;;;;;;;;16.00;99.90;;;;;;5085761;28;20192;-73
2022/11/08 13:58:34;;;;;;;;;;;15.90;99.90;;;;;;5084046;28;19922;-73
2022/11/08 14:01:03;;;;;;;;;;;15.90;99.90;;;;;;5067052;28;19916;-73
2022/11/08 14:03:32;;;;;;;;;;;15.90;99.90;;;;;;5084216;28;19908;-73
2022/11/08 14:06:04;;;;;;;;;;;15.90;99.90;;;;;;5084038;28;19944;-73
2022/11/08 14:08:36;;;;;;;;;;;15.90;99.90;;;;;;5097357;28;19923;-73
2022/11/08 14:11:17;;;;;;;;;;;15.90;99.90;;;;;;5104960;28;19908;-73
2022/11/08 14:13:56;;;;;;;;;;;15.80;99.90;;;;;;5088146;28;20012;-73
2022/11/08 14:16:40;;;;;;;;;;;15.80;99.90;;;;;;5104012;28;19909;-73
2022/11/08 14:19:22;;;;;;;;;;;15.70;99.90;;;;;;5085832;28;19962;-73
2022/11/08 14:21:50;;;;;;;;;;;15.70;99.90;;;;;;5069595;28;19930;-73
2022/11/08 14:24:17;;;;;;;;;;;15.70;99.90;;;;;;5085779;28;19923;-73
2022/11/08 14:26:46;;;;;;;;;;;15.60;99.90;;;;;;5085782;28;19922;-73
2022/11/08 14:29:17;;;;;;;;;;;15.50;99.90;;;;;;5103883;28;19920;-73
2022/11/08 14:31:43;;;;;;;;;;;15.50;99.90;;;;;;5085767;28;19943;-73
2022/11/08 14:34:26;;;;;;;;;;;15.40;99.90;;;;;;5069020;28;19908;-73
2022/11/08 14:36:52;;;;;;;;;;;15.40;99.90;;;;;;5068928;28;19908;-73
2022/11/08 14:39:18;;;;;;;;;;;15.30;99.90;;;;;;5085195;28;20022;-73
2022/11/08 14:41:50;;;;;;;;;;;15.30;99.90;;;;;;5085702;28;19907;-73
2022/11/08 14:44:17;;;;;;;;;;;15.20;99.90;;;;;;5085906;28;19908;-73
2022/11/08 14:46:43;;;;;;;;;;;15.10;99.90;;;;;;5103395;28;20001;-73
2022/11/08 14:49:30;;;;;;;;;;;14.90;99.90;;;;;;5102448;28;19981;-74
2022/11/08 14:52:25;;;;;;;;;;;14.90;99.90;;;;;;5103657;28;19916;-73
2022/11/08 14:55:08;;;;;;;;;;;14.80;99.90;;;;;;5100746;28;20219;-73
2022/11/08 14:57:41;;;;;;;;;;;14.70;99.90;;;;;;5051843;28;19916;-72
2022/11/08 15:00:13;;;;;;;;;;;14.50;99.90;;;;;;5085414;28;19920;-72
2022/11/08 15:02:39;;;;;;;;;;;14.40;99.90;;;;;;5102977;28;19939;-72